Time,TemperatureF,DewpointF,PressureIn,WindDirection,WindDirectionDegrees,WindSpeedMPH,WindSpeedGustMPH,Humidity,HourlyPrecipIn,Conditions,Clouds,dailyrainin,SoftwareType,DateUTC
2013-02-15 00:00:00,32.6,27.7,29.85,West,270,7.6,17.0,82,0.00,,,0.10,WUHU21623XXSP,2013-02-15 05:00:00,
2013-02-15 00:05:00,32.6,27.7,29.85,SW,225,6.7,10.7,82,0.00,,,0.00,WUHU21623XXSP,2013-02-15 05:05:00,
2013-02-15 00:10:00,32.6,27.7,29.84,South,180,6.3,9.6,82,0.00,,,0.00,WUHU21623XXSP,2013-02-15 05:10:00,
2013-02-15 00:15:00,32.6,27.7,29.84,SW,216,5.3,10.5,82,0.00,,,0.00,WUHU21623XXSP,2013-02-15 05:15:00,
2013-02-15 00:20:00,32.6,27.7,29.84,South,180,5.1,12.8,82,0.00,,,0.00,WUHU21623XXSP,2013-02-15 05:20:00,
2013-02-15 00:25:00,32.6,27.7,29.84,WSW,247,6.9,12.8,82,0.00,,,0.00,WUHU21623XXSP,2013-02-15 05:25:00,
2013-02-15 00:30:00,32.6,27.4,29.84,WSW,247,5.6,14.3,81,0.02,,,0.02,WUHU21623XXSP,2013-02-15 05:30:00,
2013-02-15 00:35:00,33.0,27.8,29.84,WSW,247,9.6,14.3,81,0.02,,,0.02,WUHU21623XXSP,2013-02-15 05:35:00,
2013-02-15 00:40:00,33.2,28.0,29.84,SSW,202,4.5,14.1,81,0.02,,,0.02,WUHU21623XXSP,2013-02-15 05:40:00,
2013-02-15 00:45:00,33.3,28.1,29.84,SW,225,8.5,13.0,81,0.02,,,0.02,WUHU21623XXSP,2013-02-15 05:45:00,
2013-02-15 00:50:00,33.3,28.1,29.84,SSW,211,5.8,11.6,81,0.02,,,0.02,WUHU21623XXSP,2013-02-15 05:50:00,
2013-02-15 00:55:00,33.5,28.3,29.84,WSW,247,5.6,17.7,81,0.02,,,0.02,WUHU21623XXSP,2013-02-15 05:55:00,
2013-02-15 01:00:00,33.5,28.3,29.84,SW,227,5.2,17.7,81,0.02,,,0.02,WUHU21623XXSP,2013-02-15 06:00:00,
2013-02-15 01:05:00,33.7,28.5,29.84,SW,225,4.7,11.4,81,0.02,,,0.02,WUHU21623XXSP,2013-02-15 06:05:00,
2013-02-15 01:10:00,33.9,28.4,29.84,SW,234,3.8,11.4,80,0.02,,,0.02,WUHU21623XXSP,2013-02-15 06:10:00,
2013-02-15 01:15:00,33.9,28.4,29.84,SW,225,4.9,10.1,80,0.02,,,0.02,WUHU21623XXSP,2013-02-15 06:15:00,
2013-02-15 01:20:00,33.9,28.4,29.84,SSW,208,4.4,9.6,80,0.02,,,0.02,WUHU21623XXSP,2013-02-15 06:20:00,
2013-02-15 01:25:00,34.2,28.4,29.84,SW,219,4.3,11.6,79,0.02,,,0.02,WUHU21623XXSP,2013-02-15 06:25:00,
2013-02-15 01:30:00,34.2,28.4,29.84,SW,221,4.9,11.6,79,0.00,,,0.02,WUHU21623XXSP,2013-02-15 06:30:00,
2013-02-15 01:35:00,34.2,28.4,29.84,SW,222,5.0,11.0,79,0.00,,,0.02,WUHU21623XXSP,2013-02-15 06:35:00,
2013-02-15 01:40:00,34.2,28.4,29.84,SSE,157,4.0,8.9,79,0.00,,,0.02,WUHU21623XXSP,2013-02-15 06:40:00,
2013-02-15 01:45:00,34.4,28.6,29.84,SW,225,6.5,12.8,79,0.00,,,0.02,WUHU21623XXSP,2013-02-15 06:45:00,
2013-02-15 01:50:00,34.4,28.3,29.84,SW,217,5.7,12.8,78,0.00,,,0.02,WUHU21623XXSP,2013-02-15 06:50:00,
2013-02-15 01:55:00,34.4,28.3,29.84,SSW,204,6.2,11.6,78,0.00,,,0.02,WUHU21623XXSP,2013-02-15 06:55:00,
2013-02-15 02:00:00,34.4,28.3,29.84,SSW,202,4.5,11.0,78,0.00,,,0.02,WUHU21623XXSP,2013-02-15 07:00:00,
2013-02-15 02:05:00,34.1,28.0,29.83,SW,227,5.0,9.6,78,0.00,,,0.02,WUHU21623XXSP,2013-02-15 07:05:00,
2013-02-15 02:10:00,33.9,27.8,29.84,SSW,202,8.5,9.8,78,0.00,,,0.02,WUHU21623XXSP,2013-02-15 07:10:00,
2013-02-15 02:15:00,33.9,27.8,29.84,West,270,4.5,9.8,78,0.00,,,0.02,WUHU21623XXSP,2013-02-15 07:15:00,
2013-02-15 02:20:00,33.9,27.8,29.84,SW,226,5.3,8.5,78,0.00,,,0.02,WUHU21623XXSP,2013-02-15 07:20:00,
2013-02-15 02:25:00,34.2,28.1,29.84,West,270,6.7,12.3,78,0.00,,,0.02,WUHU21623XXSP,2013-02-15 07:25:00,
2013-02-15 02:30:00,34.2,28.1,29.84,SW,229,6.8,14.5,78,0.00,,,0.02,WUHU21623XXSP,2013-02-15 07:30:00,
2013-02-15 02:35:00,34.4,28.0,29.84,SW,222,5.9,14.5,77,0.00,,,0.02,WUHU21623XXSP,2013-02-15 07:35:00,
2013-02-15 02:40:00,34.4,28.0,29.84,SSW,202,7.8,12.3,77,0.00,,,0.02,WUHU21623XXSP,2013-02-15 07:40:00,
2013-02-15 02:45:00,34.4,28.0,29.84,SW,225,5.5,12.1,77,0.00,,,0.02,WUHU21623XXSP,2013-02-15 07:45:00,
2013-02-15 02:50:00,34.8,28.4,29.84,SW,225,5.6,13.0,77,0.00,,,0.02,WUHU21623XXSP,2013-02-15 07:50:00,
2013-02-15 02:55:00,34.8,28.4,29.83,SSW,213,5.2,13.0,77,0.00,,,0.02,WUHU21623XXSP,2013-02-15 07:55:00,
2013-02-15 03:00:00,34.8,28.4,29.83,SSW,212,3.6,12.1,77,0.02,,,0.04,WUHU21623XXSP,2013-02-15 08:00:00,
2013-02-15 03:05:00,35.0,28.2,29.84,SW,214,3.6,10.7,76,0.02,,,0.04,WUHU21623XXSP,2013-02-15 08:05:00,
2013-02-15 03:10:00,35.0,28.2,29.84,SSW,202,5.1,9.8,76,0.02,,,0.04,WUHU21623XXSP,2013-02-15 08:10:00,
2013-02-15 03:15:00,35.0,28.2,29.84,SSW,192,4.4,9.8,76,0.02,,,0.04,WUHU21623XXSP,2013-02-15 08:15:00,
2013-02-15 03:20:00,35.1,28.3,29.84,South,180,5.1,12.8,76,0.02,,,0.04,WUHU21623XXSP,2013-02-15 08:20:00,
2013-02-15 03:25:00,35.1,28.3,29.83,SW,217,4.2,12.8,76,0.02,,,0.04,WUHU21623XXSP,2013-02-15 08:25:00,
2013-02-15 03:30:00,35.1,28.0,29.83,WSW,247,8.7,11.6,75,0.02,,,0.04,WUHU21623XXSP,2013-02-15 08:30:00,
2013-02-15 03:35:00,35.1,28.0,29.83,SW,217,5.2,11.6,75,0.02,,,0.04,WUHU21623XXSP,2013-02-15 08:35:00,
2013-02-15 03:40:00,35.0,27.9,29.83,SW,225,5.0,10.1,75,0.02,,,0.04,WUHU21623XXSP,2013-02-15 08:40:00,
2013-02-15 03:45:00,34.8,27.7,29.83,SSW,206,5.5,11.0,75,0.02,,,0.04,WUHU21623XXSP,2013-02-15 08:45:00,
2013-02-15 03:50:00,34.4,27.3,29.83,South,180,5.1,11.0,75,0.02,,,0.04,WUHU21623XXSP,2013-02-15 08:50:00,
2013-02-15 03:55:00,34.4,27.7,29.83,SSW,202,4.9,9.8,76,0.02,,,0.04,WUHU21623XXSP,2013-02-15 08:55:00,
2013-02-15 04:01:00,34.4,27.7,29.83,SW,231,3.4,9.8,76,0.00,,,0.04,WUHU21623XXSP,2013-02-15 09:01:00,
2013-02-15 04:06:00,34.8,28.0,29.83,SW,221,3.4,7.8,76,0.00,,,0.04,WUHU21623XXSP,2013-02-15 09:06:00,
2013-02-15 04:11:00,34.8,28.0,29.83,WSW,247,3.4,9.6,76,0.00,,,0.04,WUHU21623XXSP,2013-02-15 09:11:00,
2013-02-15 04:16:00,35.0,27.9,29.83,SW,228,2.4,9.6,75,0.00,,,0.04,WUHU21623XXSP,2013-02-15 09:16:00,
2013-02-15 04:21:00,35.0,27.9,29.83,SW,230,3.3,8.1,75,0.00,,,0.04,WUHU21623XXSP,2013-02-15 09:21:00,
2013-02-15 04:26:00,35.0,27.9,29.83,SSW,202,4.3,7.4,75,0.00,,,0.04,WUHU21623XXSP,2013-02-15 09:26:00,
2013-02-15 04:31:00,35.0,27.9,29.84,SW,233,2.9,7.2,75,0.00,,,0.04,WUHU21623XXSP,2013-02-15 09:31:00,
2013-02-15 04:36:00,35.0,27.9,29.84,SW,219,3.2,7.2,75,0.00,,,0.04,WUHU21623XXSP,2013-02-15 09:36:00,
2013-02-15 04:41:00,35.0,27.9,29.84,SSW,194,3.7,7.2,75,0.00,,,0.04,WUHU21623XXSP,2013-02-15 09:41:00,
2013-02-15 04:46:00,35.0,27.9,29.84,South,180,5.8,7.2,75,0.00,,,0.04,WUHU21623XXSP,2013-02-15 09:46:00,
2013-02-15 04:51:00,35.1,28.0,29.84,SSW,199,4.3,9.2,75,0.00,,,0.04,WUHU21623XXSP,2013-02-15 09:51:00,
2013-02-15 04:56:00,35.1,28.0,29.84,SW,231,3.7,9.2,75,0.00,,,0.04,WUHU21623XXSP,2013-02-15 09:56:00,
2013-02-15 05:01:00,35.1,28.0,29.84,SW,225,4.7,6.7,75,0.00,,,0.04,WUHU21623XXSP,2013-02-15 10:01:00,
2013-02-15 05:06:00,35.1,28.0,29.84,SW,223,3.3,11.0,75,0.00,,,0.04,WUHU21623XXSP,2013-02-15 10:06:00,
2013-02-15 05:11:00,35.1,28.0,29.85,WSW,237,3.3,11.0,75,0.00,,,0.04,WUHU21623XXSP,2013-02-15 10:11:00,
2013-02-15 05:16:00,35.1,28.0,29.85,WSW,243,3.9,8.1,75,0.00,,,0.04,WUHU21623XXSP,2013-02-15 10:16:00,
2013-02-15 05:21:00,35.1,28.0,29.85,SW,225,4.5,11.4,75,0.00,,,0.04,WUHU21623XXSP,2013-02-15 10:21:00,
2013-02-15 05:26:00,35.1,28.0,29.85,WSW,247,4.9,11.4,75,0.00,,,0.04,WUHU21623XXSP,2013-02-15 10:26:00,
2013-02-15 05:31:00,35.0,27.9,29.85,WSW,239,2.7,9.4,75,0.00,,,0.04,WUHU21623XXSP,2013-02-15 10:31:00,
2013-02-15 05:36:00,35.0,27.9,29.85,SW,227,4.8,8.1,75,0.00,,,0.04,WUHU21623XXSP,2013-02-15 10:36:00,
2013-02-15 05:41:00,35.0,27.9,29.86,SW,225,9.6,11.9,75,0.00,,,0.04,WUHU21623XXSP,2013-02-15 10:41:00,
2013-02-15 05:46:00,35.1,27.7,29.86,SW,225,5.8,14.1,74,0.00,,,0.04,WUHU21623XXSP,2013-02-15 10:46:00,
2013-02-15 05:51:00,35.3,28.2,29.86,WSW,247,6.3,14.1,75,0.00,,,0.04,WUHU21623XXSP,2013-02-15 10:51:00,
2013-02-15 05:56:00,35.3,27.9,29.86,WSW,238,2.1,7.8,74,0.00,,,0.04,WUHU21623XXSP,2013-02-15 10:56:00,
2013-02-15 06:01:00,35.1,27.7,29.86,WSW,246,5.2,7.4,74,0.00,,,0.04,WUHU21623XXSP,2013-02-15 11:01:00,
2013-02-15 06:06:00,35.1,27.4,29.87,West,266,4.0,9.2,73,0.00,,,0.04,WUHU21623XXSP,2013-02-15 11:06:00,
2013-02-15 06:11:00,35.0,27.3,29.87,WSW,245,4.2,10.5,73,0.00,,,0.04,WUHU21623XXSP,2013-02-15 11:11:00,
2013-02-15 06:16:00,34.8,27.1,29.87,WSW,241,5.4,11.4,73,0.00,,,0.04,WUHU21623XXSP,2013-02-15 11:16:00,
2013-02-15 06:21:00,35.0,27.3,29.87,WSW,251,4.9,11.4,73,0.00,,,0.04,WUHU21623XXSP,2013-02-15 11:21:00,
2013-02-15 06:26:00,35.1,27.0,29.87,SW,225,4.9,13.9,72,0.00,,,0.04,WUHU21623XXSP,2013-02-15 11:26:00,
2013-02-15 06:31:00,35.1,27.0,29.87,WSW,247,4.5,13.9,72,0.00,,,0.04,WUHU21623XXSP,2013-02-15 11:31:00,
2013-02-15 06:36:00,35.0,26.9,29.87,WSW,248,5.5,12.1,72,0.00,,,0.04,WUHU21623XXSP,2013-02-15 11:36:00,
2013-02-15 06:41:00,34.8,26.8,29.87,SW,225,5.4,13.0,72,0.00,,,0.04,WUHU21623XXSP,2013-02-15 11:41:00,
2013-02-15 06:46:00,34.8,26.8,29.87,SW,225,8.3,13.0,72,0.00,,,0.04,WUHU21623XXSP,2013-02-15 11:46:00,
2013-02-15 06:51:00,34.4,26.4,29.87,SW,225,5.1,8.3,72,0.00,,,0.04,WUHU21623XXSP,2013-02-15 11:51:00,
2013-02-15 06:57:00,34.4,26.4,29.88,SW,233,5.1,9.6,72,0.00,,,0.04,WUHU21623XXSP,2013-02-15 11:57:00,
2013-02-15 07:02:00,34.4,26.4,29.88,SW,231,4.7,12.5,72,0.00,,,0.04,WUHU21623XXSP,2013-02-15 12:02:00,
2013-02-15 07:07:00,34.4,26.0,29.88,WSW,247,14.5,14.5,71,0.00,,,0.04,WUHU21623XXSP,2013-02-15 12:07:00,
2013-02-15 07:11:00,34.8,25.7,29.88,West,270,6.5,14.5,69,0.00,,,0.04,WUHU21623XXSP,2013-02-15 12:11:00,
2013-02-15 07:17:00,34.8,25.7,29.88,West,271,2.8,15.4,69,0.00,,,0.04,WUHU21623XXSP,2013-02-15 12:17:00,
2013-02-15 07:22:00,35.0,25.6,29.88,NW,315,7.2,15.4,68,0.00,,,0.04,WUHU21623XXSP,2013-02-15 12:22:00,
2013-02-15 07:26:00,35.0,25.2,29.88,WSW,247,6.0,14.1,67,0.00,,,0.04,WUHU21623XXSP,2013-02-15 12:26:00,
2013-02-15 07:31:00,35.1,25.3,29.89,West,266,3.6,14.1,67,0.00,,,0.04,WUHU21623XXSP,2013-02-15 12:31:00,
2013-02-15 07:36:00,35.1,25.7,29.89,NW,315,6.9,10.7,68,0.00,,,0.04,WUHU21623XXSP,2013-02-15 12:36:00,
2013-02-15 07:41:00,35.3,25.5,29.89,West,270,6.9,12.5,67,0.00,,,0.04,WUHU21623XXSP,2013-02-15 12:41:00,
2013-02-15 07:46:00,35.3,25.1,29.90,West,262,3.7,14.1,66,0.00,,,0.04,WUHU21623XXSP,2013-02-15 12:46:00,
2013-02-15 07:51:00,35.3,25.1,29.90,West,270,4.0,14.1,66,0.00,,,0.04,WUHU21623XXSP,2013-02-15 12:51:00,
2013-02-15 07:56:00,35.3,25.1,29.91,West,271,3.3,10.7,66,0.00,,,0.04,WUHU21623XXSP,2013-02-15 12:56:00,
2013-02-15 08:01:00,35.3,24.8,29.91,West,277,5.7,10.7,65,0.00,,,0.04,WUHU21623XXSP,2013-02-15 13:01:00,
2013-02-15 08:07:00,35.3,24.4,29.92,WSW,258,3.0,9.8,64,0.00,,,0.04,WUHU21623XXSP,2013-02-15 13:07:00,
2013-02-15 08:12:00,35.3,24.4,29.92,West,259,4.9,13.2,64,0.00,,,0.04,WUHU21623XXSP,2013-02-15 13:12:00,
2013-02-15 08:16:00,35.3,24.0,29.92,WNW,300,3.6,13.2,63,0.00,,,0.04,WUHU21623XXSP,2013-02-15 13:16:00,
2013-02-15 08:21:00,35.3,23.6,29.92,SW,225,5.6,10.1,62,0.00,,,0.04,WUHU21623XXSP,2013-02-15 13:21:00,
2013-02-15 08:26:00,35.3,23.6,29.92,West,265,6.0,10.1,62,0.00,,,0.04,WUHU21623XXSP,2013-02-15 13:26:00,
2013-02-15 08:31:00,35.5,23.8,29.92,WSW,256,4.3,10.1,62,0.00,,,0.04,WUHU21623XXSP,2013-02-15 13:31:00,
2013-02-15 08:36:00,35.5,23.4,29.92,West,264,7.2,13.9,61,0.00,,,0.04,WUHU21623XXSP,2013-02-15 13:36:00,
2013-02-15 08:42:00,35.5,23.4,29.93,WSW,253,4.5,13.9,61,0.00,,,0.04,WUHU21623XXSP,2013-02-15 13:42:00,
2013-02-15 08:47:00,35.7,23.6,29.93,WSW,250,4.5,11.4,61,0.00,,,0.04,WUHU21623XXSP,2013-02-15 13:47:00,
2013-02-15 08:52:00,35.7,23.6,29.93,WSW,241,4.6,13.0,61,0.00,,,0.04,WUHU21623XXSP,2013-02-15 13:52:00,
2013-02-15 08:57:00,35.7,23.6,29.93,South,180,4.9,13.0,61,0.00,,,0.04,WUHU21623XXSP,2013-02-15 13:57:00,
2013-02-15 09:02:00,36.0,23.9,29.93,WSW,247,5.8,11.2,61,0.00,,,0.04,WUHU21623XXSP,2013-02-15 14:02:00,
2013-02-15 09:07:00,36.9,24.4,29.93,WSW,252,4.9,11.4,60,0.00,,,0.04,WUHU21623XXSP,2013-02-15 14:07:00,
2013-02-15 09:12:00,37.8,24.4,29.93,WSW,242,4.9,11.4,58,0.00,,,0.04,WUHU21623XXSP,2013-02-15 14:12:00,
2013-02-15 09:18:00,38.4,24.9,29.94,SW,225,7.4,14.8,58,0.00,,,0.04,WUHU21623XXSP,2013-02-15 14:18:00,
2013-02-15 09:29:00,38.7,24.4,29.94,WSW,252,5.8,14.5,56,0.00,,,0.04,WUHU21623XXSP,2013-02-15 14:29:00,
2013-02-15 09:34:00,38.7,24.8,29.94,WSW,247,3.6,12.5,57,0.00,,,0.04,WUHU21623XXSP,2013-02-15 14:34:00,
2013-02-15 09:39:00,38.7,24.4,29.94,WSW,243,5.2,10.1,56,0.00,,,0.04,WUHU21623XXSP,2013-02-15 14:39:00,
2013-02-15 09:44:00,38.6,23.4,29.94,NW,315,4.0,12.1,54,0.00,,,0.04,WUHU21623XXSP,2013-02-15 14:44:00,
2013-02-15 09:49:00,38.6,23.8,29.95,SSW,202,4.9,13.4,55,0.00,,,0.04,WUHU21623XXSP,2013-02-15 14:49:00,
2013-02-15 09:54:00,38.7,23.9,29.95,WSW,246,5.7,13.4,55,0.00,,,0.04,WUHU21623XXSP,2013-02-15 14:54:00,
2013-02-15 09:59:00,38.9,24.1,29.95,SW,225,9.8,9.8,55,0.00,,,0.04,WUHU21623XXSP,2013-02-15 14:59:00,
2013-02-15 10:04:00,38.9,23.7,29.95,WSW,249,4.6,19.0,54,0.00,,,0.04,WUHU21623XXSP,2013-02-15 15:04:00,
2013-02-15 10:09:00,38.9,23.2,29.95,WSW,239,6.4,19.0,53,0.00,,,0.04,WUHU21623XXSP,2013-02-15 15:09:00,
2013-02-15 10:14:00,38.9,23.2,29.95,WSW,247,6.5,11.4,53,0.00,,,0.04,WUHU21623XXSP,2013-02-15 15:14:00,
2013-02-15 10:19:00,38.7,23.0,29.95,West,270,3.6,18.1,53,0.00,,,0.04,WUHU21623XXSP,2013-02-15 15:19:00,
2013-02-15 10:24:00,38.7,23.0,29.95,West,260,5.2,18.1,53,0.00,,,0.04,WUHU21623XXSP,2013-02-15 15:24:00,
2013-02-15 10:29:00,38.7,22.6,29.95,WSW,247,5.8,10.1,52,0.00,,,0.04,WUHU21623XXSP,2013-02-15 15:29:00,
2013-02-15 10:34:00,38.7,23.5,29.95,WSW,245,5.8,11.6,54,0.00,,,0.04,WUHU21623XXSP,2013-02-15 15:34:00,
2013-02-15 10:39:00,38.9,23.2,29.96,WSW,247,6.3,14.8,53,0.00,,,0.04,WUHU21623XXSP,2013-02-15 15:39:00,
2013-02-15 10:44:00,38.9,22.7,29.95,WNW,288,4.6,14.8,52,0.00,,,0.04,WUHU21623XXSP,2013-02-15 15:44:00,
2013-02-15 10:49:00,38.9,23.2,29.96,SSW,202,4.9,11.9,53,0.00,,,0.04,WUHU21623XXSP,2013-02-15 15:49:00,
2013-02-15 10:54:00,38.9,23.2,29.96,WSW,247,7.2,10.7,53,0.00,,,0.04,WUHU21623XXSP,2013-02-15 15:54:00,
2013-02-15 10:59:00,38.9,22.7,29.96,WSW,239,6.8,15.2,52,0.00,,,0.04,WUHU21623XXSP,2013-02-15 15:59:00,
2013-02-15 11:04:00,38.6,22.5,29.96,SW,225,11.2,15.2,52,0.00,,,0.04,WUHU21623XXSP,2013-02-15 16:04:00,
2013-02-15 11:09:00,38.4,22.7,29.96,SW,225,6.0,11.4,53,0.00,,,0.04,WUHU21623XXSP,2013-02-15 16:09:00,
2013-02-15 11:14:00,38.4,23.2,29.96,WSW,252,4.0,9.8,54,0.00,,,0.04,WUHU21623XXSP,2013-02-15 16:14:00,
2013-02-15 11:19:00,38.7,23.0,29.96,WSW,247,5.1,9.2,53,0.00,,,0.04,WUHU21623XXSP,2013-02-15 16:19:00,
2013-02-15 11:24:00,38.7,22.6,29.96,WSW,248,4.8,13.4,52,0.00,,,0.04,WUHU21623XXSP,2013-02-15 16:24:00,
2013-02-15 11:29:00,38.9,23.2,29.96,West,265,4.6,13.4,53,0.00,,,0.04,WUHU21623XXSP,2013-02-15 16:29:00,
2013-02-15 11:34:00,39.5,24.2,29.96,SW,225,5.1,13.0,54,0.00,,,0.04,WUHU21623XXSP,2013-02-15 16:34:00,
2013-02-15 11:39:00,39.6,23.4,29.96,West,275,4.8,13.0,52,0.00,,,0.04,WUHU21623XXSP,2013-02-15 16:39:00,
2013-02-15 11:44:00,39.6,23.4,29.96,West,263,4.0,10.3,52,0.00,,,0.04,WUHU21623XXSP,2013-02-15 16:44:00,
2013-02-15 11:49:00,39.6,23.4,29.96,WNW,292,6.0,11.6,52,0.00,,,0.04,WUHU21623XXSP,2013-02-15 16:49:00,
2013-02-15 11:54:00,39.6,23.4,29.96,West,260,4.2,11.6,52,0.00,,,0.04,WUHU21623XXSP,2013-02-15 16:54:00,
2013-02-15 11:59:00,39.1,22.9,29.96,WNW,284,3.5,10.3,52,0.00,,,0.04,WUHU21623XXSP,2013-02-15 16:59:00,
2013-02-15 12:04:00,38.7,23.0,29.96,West,263,4.2,10.1,53,0.00,,,0.04,WUHU21623XXSP,2013-02-15 17:04:00,
2013-02-15 12:09:00,38.7,23.5,29.96,WSW,241,4.4,10.1,54,0.00,,,0.04,WUHU21623XXSP,2013-02-15 17:09:00,
2013-02-15 12:14:00,38.9,23.7,29.96,West,281,1.9,8.9,54,0.00,,,0.04,WUHU21623XXSP,2013-02-15 17:14:00,
2013-02-15 12:19:00,39.1,23.9,29.96,NW,315,7.6,9.2,54,0.00,,,0.04,WUHU21623XXSP,2013-02-15 17:19:00,
2013-02-15 12:24:00,39.3,23.6,29.96,SSW,202,6.0,9.2,53,0.00,,,0.04,WUHU21623XXSP,2013-02-15 17:24:00,
2013-02-15 12:29:00,39.5,23.8,29.96,WSW,247,6.5,8.5,53,0.00,,,0.04,WUHU21623XXSP,2013-02-15 17:29:00,
2013-02-15 12:34:00,39.5,23.8,29.96,WSW,243,4.1,8.5,53,0.00,,,0.04,WUHU21623XXSP,2013-02-15 17:34:00,
2013-02-15 12:39:00,39.5,23.8,29.96,WSW,247,2.9,8.3,53,0.00,,,0.04,WUHU21623XXSP,2013-02-15 17:39:00,
2013-02-15 12:44:00,39.8,24.5,29.96,WSW,244,3.3,7.6,54,0.00,,,0.04,WUHU21623XXSP,2013-02-15 17:44:00,
2013-02-15 12:49:00,40.0,24.7,29.96,WSW,247,2.0,7.6,54,0.00,,,0.04,WUHU21623XXSP,2013-02-15 17:49:00,
2013-02-15 12:54:00,39.8,24.0,29.96,West,277,3.6,9.2,53,0.00,,,0.04,WUHU21623XXSP,2013-02-15 17:54:00,
2013-02-15 12:59:00,39.3,23.6,29.96,SW,225,2.5,9.2,53,0.00,,,0.04,WUHU21623XXSP,2013-02-15 17:59:00,
2013-02-15 13:04:00,39.3,24.0,29.96,WSW,252,3.7,6.9,54,0.00,,,0.04,WUHU21623XXSP,2013-02-15 18:04:00,
2013-02-15 13:09:00,39.3,24.0,29.96,West,262,1.9,6.3,54,0.00,,,0.04,WUHU21623XXSP,2013-02-15 18:09:00,
2013-02-15 13:14:00,39.8,24.5,29.95,WSW,254,2.6,6.0,54,0.00,,,0.04,WUHU21623XXSP,2013-02-15 18:14:00,
2013-02-15 13:19:00,40.2,24.4,29.96,NW,315,3.8,5.8,53,0.00,,,0.04,WUHU21623XXSP,2013-02-15 18:19:00,
2013-02-15 13:24:00,40.4,24.6,29.96,West,265,3.4,7.2,53,0.00,,,0.04,WUHU21623XXSP,2013-02-15 18:24:00,
2013-02-15 13:29:00,40.2,24.4,29.96,West,265,3.8,9.8,53,0.00,,,0.04,WUHU21623XXSP,2013-02-15 18:29:00,
2013-02-15 13:34:00,39.8,24.0,29.96,NW,323,2.3,9.8,53,0.00,,,0.04,WUHU21623XXSP,2013-02-15 18:34:00,
2013-02-15 13:39:00,40.4,24.6,29.96,NW,315,2.7,8.3,53,0.00,,,0.04,WUHU21623XXSP,2013-02-15 18:39:00,
2013-02-15 13:44:00,40.5,24.7,29.96,WNW,286,3.9,9.2,53,0.00,,,0.04,WUHU21623XXSP,2013-02-15 18:44:00,
2013-02-15 13:49:00,40.0,24.2,29.96,NW,315,2.9,9.2,53,0.00,,,0.04,WUHU21623XXSP,2013-02-15 18:49:00,
2013-02-15 13:55:00,39.8,24.0,29.96,West,265,3.0,5.6,53,0.00,,,0.04,WUHU21623XXSP,2013-02-15 18:55:00,
2013-02-15 14:00:00,39.5,24.2,29.96,NW,315,3.5,5.8,54,0.00,,,0.04,WUHU21623XXSP,2013-02-15 19:00:00,
2013-02-15 14:05:00,39.3,24.0,29.95,WNW,301,3.3,6.0,54,0.00,,,0.04,WUHU21623XXSP,2013-02-15 19:05:00,
2013-02-15 14:10:00,39.6,24.8,29.95,WNW,286,2.0,6.0,55,0.00,,,0.04,WUHU21623XXSP,2013-02-15 19:10:00,
2013-02-15 14:15:00,39.8,24.5,29.95,North,0,3.4,4.7,54,0.00,,,0.04,WUHU21623XXSP,2013-02-15 19:15:00,
2013-02-15 14:20:00,40.0,24.7,29.95,West,278,1.5,6.5,54,0.00,,,0.04,WUHU21623XXSP,2013-02-15 19:20:00,
2013-02-15 14:25:00,40.0,24.7,29.95,WNW,292,2.0,6.5,54,0.00,,,0.04,WUHU21623XXSP,2013-02-15 19:25:00,
2013-02-15 14:30:00,39.8,24.5,29.95,WNW,296,2.5,4.7,54,0.00,,,0.04,WUHU21623XXSP,2013-02-15 19:30:00,
2013-02-15 14:35:00,39.8,24.5,29.96,West,270,2.7,5.1,54,0.00,,,0.04,WUHU21623XXSP,2013-02-15 19:35:00,
2013-02-15 14:40:00,39.6,24.3,29.96,West,270,4.9,5.8,54,0.00,,,0.04,WUHU21623XXSP,2013-02-15 19:40:00,
2013-02-15 14:45:00,39.5,24.2,29.96,NW,321,2.3,6.5,54,0.00,,,0.04,WUHU21623XXSP,2013-02-15 19:45:00,
2013-02-15 14:50:00,39.5,24.7,29.96,West,278,2.9,6.5,55,0.00,,,0.04,WUHU21623XXSP,2013-02-15 19:50:00,
2013-02-15 14:55:00,39.6,24.8,29.96,WSW,239,2.1,5.1,55,0.00,,,0.04,WUHU21623XXSP,2013-02-15 19:55:00,
2013-02-15 15:00:00,39.3,24.0,29.96,SE,135,2.5,5.1,54,0.00,,,0.04,WUHU21623XXSP,2013-02-15 20:00:00,
2013-02-15 15:05:00,38.9,23.7,29.96,WNW,293,2.2,5.1,54,0.00,,,0.04,WUHU21623XXSP,2013-02-15 20:05:00,
2013-02-15 15:10:00,38.6,23.8,29.96,WNW,291,3.9,7.6,55,0.00,,,0.04,WUHU21623XXSP,2013-02-15 20:10:00,
2013-02-15 15:15:00,38.4,23.6,29.96,WSW,254,3.7,7.6,55,0.00,,,0.04,WUHU21623XXSP,2013-02-15 20:15:00,
2013-02-15 15:20:00,38.0,23.3,29.96,NW,310,2.0,7.6,55,0.00,,,0.04,WUHU21623XXSP,2013-02-15 20:20:00,
2013-02-15 15:25:00,38.0,23.3,29.96,NNW,337,4.0,4.0,55,0.00,,,0.04,WUHU21623XXSP,2013-02-15 20:25:00,
2013-02-15 15:30:00,37.8,23.1,29.97,NW,326,3.4,5.1,55,0.00,,,0.04,WUHU21623XXSP,2013-02-15 20:30:00,
2013-02-15 15:35:00,37.5,22.8,29.97,NW,315,2.7,5.1,55,0.00,,,0.04,WUHU21623XXSP,2013-02-15 20:35:00,
2013-02-15 15:40:00,37.1,22.4,29.97,NNW,333,3.5,7.6,55,0.00,,,0.04,WUHU21623XXSP,2013-02-15 20:40:00,
2013-02-15 15:45:00,36.8,22.6,29.98,NW,315,2.7,7.6,56,0.00,,,0.04,WUHU21623XXSP,2013-02-15 20:45:00,
2013-02-15 15:50:00,36.2,22.0,29.97,NNW,337,2.5,5.4,56,0.00,,,0.04,WUHU21623XXSP,2013-02-15 20:50:00,
2013-02-15 15:55:00,36.0,22.3,29.97,NW,315,4.0,4.9,57,0.00,,,0.04,WUHU21623XXSP,2013-02-15 20:55:00,
2013-02-15 16:00:00,35.7,22.0,29.97,NW,315,0.0,4.5,57,0.00,,,0.04,WUHU21623XXSP,2013-02-15 21:00:00,
2013-02-15 16:05:00,35.5,22.2,29.98,NW,320,2.4,5.4,58,0.00,,,0.04,WUHU21623XXSP,2013-02-15 21:05:00,
2013-02-15 16:10:00,35.3,22.0,29.97,NNW,337,3.6,5.4,58,0.00,,,0.04,WUHU21623XXSP,2013-02-15 21:10:00,
2013-02-15 16:15:00,35.1,21.8,29.97,NW,315,0.0,5.4,58,0.00,,,0.04,WUHU21623XXSP,2013-02-15 21:15:00,
2013-02-15 16:20:00,35.1,22.3,29.97,NNW,347,2.3,4.3,59,0.00,,,0.04,WUHU21623XXSP,2013-02-15 21:20:00,
2013-02-15 16:25:00,35.0,22.2,29.98,WNW,288,2.2,3.1,59,0.00,,,0.04,WUHU21623XXSP,2013-02-15 21:25:00,
2013-02-15 16:30:00,35.0,22.2,29.98,West,270,1.5,3.1,59,0.00,,,0.04,WUHU21623XXSP,2013-02-15 21:30:00,
2013-02-15 16:35:00,34.8,22.0,29.98,WSW,247,0.0,1.6,59,0.00,,,0.04,WUHU21623XXSP,2013-02-15 21:35:00,
2013-02-15 16:40:00,34.8,22.4,29.98,NW,315,0.9,1.8,60,0.00,,,0.04,WUHU21623XXSP,2013-02-15 21:40:00,
2013-02-15 16:45:00,34.4,22.0,29.98,SW,225,4.7,5.8,60,0.00,,,0.04,WUHU21623XXSP,2013-02-15 21:45:00,
2013-02-15 16:50:00,34.4,22.0,29.98,WNW,296,2.3,8.3,60,0.00,,,0.04,WUHU21623XXSP,2013-02-15 21:50:00,
2013-02-15 16:55:00,34.2,21.8,29.98,NNW,337,1.7,8.3,60,0.00,,,0.04,WUHU21623XXSP,2013-02-15 21:55:00,
2013-02-15 17:00:00,33.9,21.5,29.98,NNW,337,4.0,5.4,60,0.00,,,0.04,WUHU21623XXSP,2013-02-15 22:00:00,
2013-02-15 17:05:00,33.7,21.7,29.99,NNW,341,3.0,6.0,61,0.00,,,0.04,WUHU21623XXSP,2013-02-15 22:05:00,
2013-02-15 17:10:00,33.5,21.5,29.99,NW,315,3.8,6.0,61,0.00,,,0.04,WUHU21623XXSP,2013-02-15 22:10:00,
2013-02-15 17:15:00,33.3,21.3,29.99,NNW,342,3.4,6.9,61,0.00,,,0.04,WUHU21623XXSP,2013-02-15 22:15:00,
2013-02-15 17:20:00,33.3,21.3,29.99,North,0,4.3,6.9,61,0.00,,,0.04,WUHU21623XXSP,2013-02-15 22:20:00,
2013-02-15 17:25:00,33.2,21.3,29.99,WNW,292,3.8,6.3,61,0.00,,,0.04,WUHU21623XXSP,2013-02-15 22:25:00,
2013-02-15 17:30:00,33.0,21.1,29.99,NNW,343,1.5,6.0,61,0.00,,,0.04,WUHU21623XXSP,2013-02-15 22:30:00,
2013-02-15 17:35:00,32.6,20.7,29.99,NNW,337,2.9,4.9,61,0.00,,,0.04,WUHU21623XXSP,2013-02-15 22:35:00,
2013-02-15 17:40:00,32.6,21.1,29.99,North,0,2.7,5.8,62,0.00,,,0.04,WUHU21623XXSP,2013-02-15 22:40:00,
2013-02-15 17:45:00,32.6,21.1,29.99,NW,315,4.7,5.8,62,0.00,,,0.04,WUHU21623XXSP,2013-02-15 22:45:00,
2013-02-15 17:50:00,32.4,20.5,29.99,North,357,1.8,4.7,61,0.00,,,0.04,WUHU21623XXSP,2013-02-15 22:50:00,
2013-02-15 17:55:00,32.3,20.4,29.99,NNW,344,1.8,4.5,61,0.00,,,0.04,WUHU21623XXSP,2013-02-15 22:55:00,
2013-02-15 18:00:00,32.1,20.2,30.00,North,355,4.9,8.5,61,0.00,,,0.04,WUHU21623XXSP,2013-02-15 23:00:00,
2013-02-15 18:05:00,32.1,20.2,30.00,NW,324,2.7,8.5,61,0.00,,,0.04,WUHU21623XXSP,2013-02-15 23:05:00,
2013-02-15 18:10:00,31.9,20.0,30.00,NNW,337,2.7,4.9,61,0.00,,,0.04,WUHU21623XXSP,2013-02-15 23:10:00,
2013-02-15 18:15:00,31.7,19.8,30.00,North,0,2.0,4.3,61,0.00,,,0.04,WUHU21623XXSP,2013-02-15 23:15:00,
2013-02-15 18:20:00,31.7,19.8,30.00,NNE,22,4.7,4.7,61,0.00,,,0.04,WUHU21623XXSP,2013-02-15 23:20:00,
2013-02-15 18:25:00,31.5,19.6,30.00,North,355,4.4,6.5,61,0.00,,,0.04,WUHU21623XXSP,2013-02-15 23:25:00,
2013-02-15 18:30:00,31.5,19.6,30.00,NW,315,4.3,6.5,61,0.00,,,0.04,WUHU21623XXSP,2013-02-15 23:30:00,
2013-02-15 18:35:00,31.4,19.5,30.00,NNW,343,2.8,5.8,61,0.00,,,0.04,WUHU21623XXSP,2013-02-15 23:35:00,
2013-02-15 18:40:00,31.2,19.4,30.00,NNW,337,0.6,5.4,61,0.00,,,0.04,WUHU21623XXSP,2013-02-15 23:40:00,
2013-02-15 18:45:00,31.2,19.4,30.00,NNW,348,4.4,6.9,61,0.00,,,0.04,WUHU21623XXSP,2013-02-15 23:45:00,
2013-02-15 18:50:00,31.2,19.4,30.00,NNW,337,2.9,6.9,61,0.00,,,0.04,WUHU21623XXSP,2013-02-15 23:50:00,
2013-02-15 18:55:00,31.0,19.2,30.00,NNW,337,3.4,5.6,61,0.00,,,0.04,WUHU21623XXSP,2013-02-15 23:55:00,
2013-02-15 19:00:00,30.8,19.0,30.01,North,0,4.7,6.3,61,0.00,,,0.04,WUHU21623XXSP,2013-02-16 00:00:00,
2013-02-15 19:05:00,30.8,19.0,30.01,North,0,2.8,6.3,61,0.00,,,0.04,WUHU21623XXSP,2013-02-16 00:05:00,
2013-02-15 19:10:00,30.8,19.0,30.01,North,0,2.0,5.6,61,0.00,,,0.04,WUHU21623XXSP,2013-02-16 00:10:00,
2013-02-15 19:15:00,30.6,18.8,30.01,NNW,335,3.5,5.6,61,0.00,,,0.04,WUHU21623XXSP,2013-02-16 00:15:00,
2013-02-15 19:20:00,30.6,18.8,30.01,NNW,337,4.9,9.2,61,0.00,,,0.04,WUHU21623XXSP,2013-02-16 00:20:00,
2013-02-15 19:25:00,30.6,18.8,30.01,NNW,346,3.5,9.2,61,0.00,,,0.04,WUHU21623XXSP,2013-02-16 00:25:00,
2013-02-15 19:30:00,30.6,18.8,30.01,NNW,342,3.5,6.5,61,0.00,,,0.04,WUHU21623XXSP,2013-02-16 00:30:00,
2013-02-15 19:35:00,30.6,18.8,30.01,North,0,3.4,6.0,61,0.00,,,0.04,WUHU21623XXSP,2013-02-16 00:35:00,
2013-02-15 19:40:00,30.5,18.7,30.02,NNW,333,2.5,5.1,61,0.00,,,0.04,WUHU21623XXSP,2013-02-16 00:40:00,
2013-02-15 19:45:00,30.3,18.5,30.02,North,0,5.6,5.6,61,0.00,,,0.04,WUHU21623XXSP,2013-02-16 00:45:00,
2013-02-15 19:51:00,30.3,18.5,30.02,North,0,1.9,5.6,61,0.00,,,0.04,WUHU21623XXSP,2013-02-16 00:51:00,
2013-02-15 19:56:00,30.1,18.3,30.02,NNW,337,0.0,4.3,61,0.00,,,0.04,WUHU21623XXSP,2013-02-16 00:56:00,
2013-02-15 20:01:00,30.1,18.3,30.02,NNW,337,4.5,4.9,61,0.00,,,0.04,WUHU21623XXSP,2013-02-16 01:01:00,
2013-02-15 20:06:00,30.1,18.3,30.02,NW,315,4.3,7.2,61,0.00,,,0.04,WUHU21623XXSP,2013-02-16 01:06:00,
2013-02-15 20:11:00,29.9,18.1,30.02,NNW,337,4.3,7.2,61,0.00,,,0.04,WUHU21623XXSP,2013-02-16 01:11:00,
2013-02-15 20:16:00,29.9,18.1,30.02,NNW,344,2.6,6.7,61,0.00,,,0.04,WUHU21623XXSP,2013-02-16 01:16:00,
2013-02-15 20:21:00,29.9,18.1,30.02,NNW,336,3.1,5.1,61,0.00,,,0.04,WUHU21623XXSP,2013-02-16 01:21:00,
2013-02-15 20:26:00,29.7,18.3,30.02,NNE,22,6.3,7.2,62,0.00,,,0.04,WUHU21623XXSP,2013-02-16 01:26:00,
2013-02-15 20:31:00,29.6,18.2,30.02,North,0,4.7,7.2,62,0.00,,,0.04,WUHU21623XXSP,2013-02-16 01:31:00,
2013-02-15 20:36:00,29.4,18.0,30.02,NNW,328,2.9,6.3,62,0.00,,,0.04,WUHU21623XXSP,2013-02-16 01:36:00,
2013-02-15 20:41:00,29.4,18.0,30.02,WNW,292,3.8,6.3,62,0.00,,,0.04,WUHU21623XXSP,2013-02-16 01:41:00,
2013-02-15 20:46:00,29.2,17.8,30.02,NW,317,2.3,6.0,62,0.00,,,0.04,WUHU21623XXSP,2013-02-16 01:46:00,
2013-02-15 20:51:00,29.0,17.3,30.02,WNW,287,2.4,6.0,61,0.00,,,0.04,WUHU21623XXSP,2013-02-16 01:51:00,
2013-02-15 20:56:00,29.0,17.3,30.02,NNW,345,2.2,4.9,61,0.00,,,0.04,WUHU21623XXSP,2013-02-16 01:56:00,
2013-02-15 21:01:00,29.0,17.7,30.03,NW,306,2.6,4.9,62,0.00,,,0.04,WUHU21623XXSP,2013-02-16 02:01:00,
2013-02-15 21:06:00,28.5,16.8,30.03,NNW,329,3.4,6.5,61,0.00,,,0.04,WUHU21623XXSP,2013-02-16 02:06:00,
2013-02-15 21:11:00,28.3,16.6,30.03,North,0,3.6,6.5,61,0.00,,,0.04,WUHU21623XXSP,2013-02-16 02:11:00,
2013-02-15 21:16:00,28.1,16.4,30.03,NNW,327,3.3,5.4,61,0.00,,,0.04,WUHU21623XXSP,2013-02-16 02:16:00,
2013-02-15 21:21:00,27.9,16.2,30.03,NNW,340,4.3,8.1,61,0.00,,,0.04,WUHU21623XXSP,2013-02-16 02:21:00,
2013-02-15 21:26:00,27.6,16.3,30.03,NNW,329,3.7,8.1,62,0.00,,,0.04,WUHU21623XXSP,2013-02-16 02:26:00,
2013-02-15 21:31:00,27.6,16.3,30.03,WNW,292,6.3,7.6,62,0.00,,,0.04,WUHU21623XXSP,2013-02-16 02:31:00,
2013-02-15 21:36:00,27.2,15.9,30.03,NW,323,3.1,8.3,62,0.00,,,0.04,WUHU21623XXSP,2013-02-16 02:36:00,
2013-02-15 21:41:00,27.2,15.9,30.03,NNW,339,2.7,8.3,62,0.00,,,0.04,WUHU21623XXSP,2013-02-16 02:41:00,
2013-02-15 21:46:00,27.0,15.8,30.03,NW,315,6.5,7.8,62,0.00,,,0.04,WUHU21623XXSP,2013-02-16 02:46:00,
2013-02-15 21:51:00,27.0,16.1,30.02,NW,315,3.4,7.8,63,0.00,,,0.04,WUHU21623XXSP,2013-02-16 02:51:00,
2013-02-15 21:56:00,27.0,16.1,30.02,NNW,337,3.1,5.8,63,0.00,,,0.04,WUHU21623XXSP,2013-02-16 02:56:00,
2013-02-15 22:01:00,27.0,16.1,30.02,NNW,337,2.9,7.2,63,0.00,,,0.04,WUHU21623XXSP,2013-02-16 03:01:00,
2013-02-15 22:06:00,26.7,15.8,30.02,NW,315,3.6,7.2,63,0.00,,,0.04,WUHU21623XXSP,2013-02-16 03:06:00,
2013-02-15 22:11:00,26.5,15.7,30.02,NW,315,3.8,4.7,63,0.00,,,0.04,WUHU21623XXSP,2013-02-16 03:11:00,
2013-02-15 22:16:00,26.5,15.7,30.02,NNW,330,1.9,4.7,63,0.00,,,0.04,WUHU21623XXSP,2013-02-16 03:16:00,
2013-02-15 22:21:00,26.1,15.3,30.02,NW,315,1.4,4.0,63,0.00,,,0.04,WUHU21623XXSP,2013-02-16 03:21:00,
2013-02-15 22:27:00,25.8,15.4,30.02,WNW,295,2.3,3.8,64,0.00,,,0.04,WUHU21623XXSP,2013-02-16 03:27:00,
2013-02-15 22:33:00,25.6,15.2,30.03,NNW,337,0.0,3.8,64,0.00,,,0.04,WUHU21623XXSP,2013-02-16 03:33:00,
2013-02-15 22:38:00,25.4,15.0,30.03,NNW,337,0.0,2.0,64,0.00,,,0.04,WUHU21623XXSP,2013-02-16 03:38:00,
2013-02-15 22:43:00,25.4,15.3,30.03,NW,315,0.0,2.7,65,0.00,,,0.04,WUHU21623XXSP,2013-02-16 03:43:00,
2013-02-15 22:48:00,25.8,15.7,30.03,WNW,292,0.0,2.7,65,0.00,,,0.04,WUHU21623XXSP,2013-02-16 03:48:00,
2013-02-15 22:53:00,26.1,16.0,30.03,WNW,292,0.0,0.0,65,0.00,,,0.04,WUHU21623XXSP,2013-02-16 03:53:00,
2013-02-15 22:58:00,26.3,16.2,30.03,WNW,292,0.6,0.9,65,0.00,,,0.04,WUHU21623XXSP,2013-02-16 03:58:00,
2013-02-15 23:03:00,26.5,16.4,30.03,NNE,22,2.7,4.7,65,0.00,,,0.04,WUHU21623XXSP,2013-02-16 04:03:00,
2013-02-15 23:08:00,26.7,16.9,30.03,NNE,23,3.6,5.6,66,0.00,,,0.04,WUHU21623XXSP,2013-02-16 04:08:00,
2013-02-15 23:13:00,26.5,16.7,30.03,NW,315,3.4,5.6,66,0.00,,,0.04,WUHU21623XXSP,2013-02-16 04:13:00,
2013-02-15 23:18:00,26.3,16.5,30.03,North,353,3.5,5.4,66,0.00,,,0.04,WUHU21623XXSP,2013-02-16 04:18:00,
2013-02-15 23:23:00,26.3,16.9,30.03,North,356,5.0,6.5,67,0.00,,,0.04,WUHU21623XXSP,2013-02-16 04:23:00,
2013-02-15 23:28:00,26.3,16.9,30.03,NNW,330,2.3,6.5,67,0.00,,,0.04,WUHU21623XXSP,2013-02-16 04:28:00,
2013-02-15 23:33:00,26.1,16.7,30.03,NNW,347,2.1,6.3,67,0.00,,,0.04,WUHU21623XXSP,2013-02-16 04:33:00,
2013-02-15 23:38:00,26.1,16.7,30.03,NNW,337,4.7,4.7,67,0.00,,,0.04,WUHU21623XXSP,2013-02-16 04:38:00,
2013-02-15 23:43:00,26.1,17.0,30.03,NNW,337,8.7,9.2,68,0.00,,,0.04,WUHU21623XXSP,2013-02-16 04:43:00,
2013-02-15 23:48:00,26.0,16.9,30.03,NNW,337,6.0,9.4,68,0.00,,,0.04,WUHU21623XXSP,2013-02-16 04:48:00,
2013-02-15 23:53:00,25.8,16.8,30.04,NNW,336,5.0,8.3,68,0.00,,,0.04,WUHU21623XXSP,2013-02-16 04:53:00,
2013-02-15 23:58:00,25.8,16.8,30.03,NNW,343,4.7,9.2,68,0.00,,,0.04,WUHU21623XXSP,2013-02-16 04:58:00,